createdAt,value
2023-08-17T00:01:18.592Z,8.10
2023-08-17T00:03:45.068Z,8.65
2023-08-17T00:06:11.750Z,8.02
2023-08-17T00:08:38.217Z,6.20
2023-08-17T00:11:04.715Z,6.75
2023-08-17T00:13:31.171Z,5.05
2023-08-17T00:15:57.994Z,7.43
2023-08-17T00:18:24.540Z,6.20
2023-08-17T00:20:50.962Z,8.05
2023-08-17T00:23:17.410Z,4.53
2023-08-17T00:25:43.900Z,5.10
2023-08-17T00:28:10.377Z,5.60
2023-08-17T00:30:38.519Z,6.00
2023-08-17T00:33:05.422Z,5.70
2023-08-17T00:35:32.245Z,6.03
2023-08-17T00:37:58.794Z,4.63
2023-08-17T00:40:25.279Z,8.23
2023-08-17T00:42:52.722Z,6.32
2023-08-17T00:45:20.754Z,5.30
2023-08-17T00:47:47.564Z,4.53
2023-08-17T00:50:15.921Z,6.30
2023-08-17T00:52:43.560Z,6.22
2023-08-17T00:55:12.134Z,4.20
2023-08-17T00:57:38.753Z,4.35
2023-08-17T01:00:06.790Z,5.20
2023-08-17T01:02:34.135Z,6.40
2023-08-17T01:05:02.048Z,4.72
2023-08-17T01:07:28.795Z,5.25
2023-08-17T01:09:55.570Z,4.20
2023-08-17T01:12:32.752Z,6.85
2023-08-17T01:15:14.222Z,4.70
2023-08-17T01:17:45.239Z,3.90
2023-08-17T01:20:14.607Z,4.20
2023-08-17T01:22:43.808Z,6.30
2023-08-17T01:25:10.427Z,5.75
2023-08-17T01:27:46.530Z,4.25
2023-08-17T01:30:16.500Z,5.25
2023-08-17T01:32:51.947Z,4.25
2023-08-17T01:35:25.453Z,5.07
2023-08-17T01:37:56.695Z,4.10
2023-08-17T01:40:24.040Z,6.28
2023-08-17T01:42:51.641Z,6.18
2023-08-17T01:45:18.559Z,5.75
2023-08-17T01:47:45.048Z,6.43
2023-08-17T01:50:11.611Z,6.15
2023-08-17T01:52:38.060Z,5.22
2023-08-17T01:55:04.937Z,8.23
2023-08-17T01:57:31.383Z,6.10
2023-08-17T01:59:58.034Z,7.07
2023-08-17T02:02:24.622Z,4.53
2023-08-17T02:04:51.111Z,4.78
2023-08-17T02:07:17.652Z,5.05
2023-08-17T02:09:47.522Z,4.57
2023-08-17T02:12:14.003Z,3.97
2023-08-17T02:14:40.968Z,4.10
2023-08-17T02:17:07.593Z,6.55
2023-08-17T02:19:34.074Z,5.60
2023-08-17T02:22:00.656Z,5.05
2023-08-17T02:24:27.151Z,6.00
2023-08-17T02:26:53.639Z,5.80
2023-08-17T02:29:20.146Z,5.07
2023-08-17T02:31:46.571Z,6.03
2023-08-17T02:34:13.052Z,6.47
2023-08-17T02:36:39.575Z,5.35
2023-08-17T02:39:06.670Z,6.30
2023-08-17T02:41:33.390Z,5.00
2023-08-17T02:44:01.180Z,5.57
2023-08-17T02:46:27.667Z,8.20
2023-08-17T02:48:54.201Z,5.90
2023-08-17T02:51:20.764Z,5.38
2023-08-17T02:53:47.329Z,6.18
2023-08-17T02:56:13.836Z,4.65
2023-08-17T02:58:43.282Z,6.05
2023-08-17T03:01:10.133Z,6.35
2023-08-17T03:03:36.998Z,6.03
2023-08-17T03:06:03.945Z,6.32
2023-08-17T03:08:30.393Z,6.97
2023-08-17T03:10:56.918Z,5.82
2023-08-17T03:13:23.450Z,8.90
2023-08-17T03:15:50.674Z,7.75
2023-08-17T03:18:17.148Z,7.95
2023-08-17T03:20:46.667Z,6.57
2023-08-17T03:23:13.236Z,5.70
2023-08-17T03:25:40.470Z,4.93
2023-08-17T03:28:07.141Z,4.88
2023-08-17T03:30:34.040Z,6.35
2023-08-17T03:33:00.617Z,5.80
2023-08-17T03:35:27.324Z,7.25
2023-08-17T03:37:53.975Z,7.78
2023-08-17T03:40:21.331Z,5.57
2023-08-17T03:42:47.773Z,4.90
2023-08-17T03:45:14.318Z,8.05
2023-08-17T03:47:40.868Z,6.78
2023-08-17T03:50:07.974Z,5.55
2023-08-17T03:52:34.577Z,6.18
2023-08-17T03:55:01.431Z,6.40
2023-08-17T03:57:28.256Z,5.72
2023-08-17T03:59:55.025Z,7.38
2023-08-17T04:02:21.664Z,4.93
2023-08-17T04:04:48.206Z,6.90
2023-08-17T04:07:22.031Z,6.05
2023-08-17T04:09:48.521Z,8.02
2023-08-17T04:12:15.666Z,6.35
2023-08-17T04:14:42.529Z,7.35
2023-08-17T04:17:09.067Z,4.35
2023-08-17T04:19:35.777Z,5.47
2023-08-17T04:22:02.212Z,5.30
2023-08-17T04:24:28.664Z,6.78
2023-08-17T04:26:55.151Z,8.20
2023-08-17T04:29:21.848Z,6.75
2023-08-17T04:31:48.927Z,9.38
2023-08-17T04:34:15.451Z,10.32
2023-08-17T04:36:42.124Z,5.35
2023-08-17T04:39:10.280Z,7.32
2023-08-17T04:41:36.907Z,10.50
2023-08-17T04:44:07.023Z,8.43
2023-08-17T04:46:33.579Z,4.28
2023-08-17T04:49:00.530Z,5.22
2023-08-17T04:51:27.926Z,6.35
2023-08-17T04:53:56.868Z,7.65
2023-08-17T04:56:23.472Z,6.13
2023-08-17T04:58:50.038Z,6.70
2023-08-17T05:01:19.278Z,7.20
2023-08-17T05:03:46.694Z,7.10
2023-08-17T05:06:14.369Z,7.10
2023-08-17T05:08:41.083Z,7.15
2023-08-17T05:11:07.844Z,8.25
2023-08-17T05:13:34.320Z,5.95
2023-08-17T05:16:03.429Z,5.32
2023-08-17T05:18:31.097Z,5.75
2023-08-17T05:20:57.946Z,8.02
2023-08-17T05:23:24.465Z,7.15
2023-08-17T05:25:52.634Z,9.18
2023-08-17T05:28:19.159Z,7.03
2023-08-17T05:30:45.627Z,7.63
2023-08-17T05:33:12.098Z,7.90
2023-08-17T05:35:39.524Z,6.25
2023-08-17T05:38:05.997Z,6.45
2023-08-17T05:40:33.469Z,9.25
2023-08-17T05:43:00.232Z,8.50
2023-08-17T05:45:26.715Z,6.65
2023-08-17T05:47:53.763Z,6.82
2023-08-17T05:50:20.364Z,7.07
2023-08-17T05:52:46.822Z,7.00
2023-08-17T05:55:13.288Z,9.55
2023-08-17T05:57:39.863Z,6.88
2023-08-17T06:00:07.009Z,8.75
2023-08-17T06:02:39.877Z,5.43
2023-08-17T06:05:07.092Z,6.10
2023-08-17T06:07:33.878Z,7.72
2023-08-17T06:10:00.497Z,7.15
2023-08-17T06:12:26.978Z,7.78
2023-08-17T06:14:53.430Z,12.32
2023-08-17T06:17:20.989Z,8.02
2023-08-17T06:19:47.504Z,8.25
2023-08-17T06:22:14.094Z,7.50
2023-08-17T06:24:40.521Z,7.18
2023-08-17T06:27:06.971Z,7.68
2023-08-17T06:29:33.395Z,7.25
2023-08-17T06:31:59.884Z,7.72
2023-08-17T06:34:26.366Z,8.32
2023-08-17T06:37:03.130Z,8.82
2023-08-17T06:39:29.688Z,9.20
2023-08-17T06:41:56.229Z,6.50
2023-08-17T06:44:22.702Z,9.63
2023-08-17T06:46:49.160Z,6.65
2023-08-17T06:49:15.845Z,9.70
2023-08-17T06:51:42.285Z,7.70
2023-08-17T06:54:10.378Z,11.02
2023-08-17T06:56:36.887Z,7.57
2023-08-17T06:59:03.949Z,10.75
2023-08-17T07:01:30.453Z,9.35
2023-08-17T07:03:58.082Z,9.45
2023-08-17T07:06:26.041Z,10.98
2023-08-17T07:08:53.667Z,11.65
2023-08-17T07:11:20.334Z,12.73
2023-08-17T07:13:47.693Z,10.90
2023-08-17T07:16:14.545Z,11.60
2023-08-17T07:18:41.580Z,16.95
2023-08-17T07:21:08.062Z,18.23
2023-08-17T07:23:34.649Z,19.98
2023-08-17T07:26:01.280Z,21.45
2023-08-17T07:28:27.762Z,23.50
2023-08-17T07:30:54.271Z,25.42
2023-08-17T07:33:20.731Z,25.60
2023-08-17T07:35:47.175Z,24.65
2023-08-17T07:38:14.000Z,27.42
2023-08-17T07:40:40.513Z,24.65
2023-08-17T07:43:06.962Z,25.60
2023-08-17T07:45:33.416Z,23.52
2023-08-17T07:47:59.886Z,19.13
2023-08-17T07:50:26.382Z,11.50
2023-08-17T07:52:52.810Z,11.57
2023-08-17T07:55:19.314Z,19.40
2023-08-17T07:57:45.819Z,17.58
2023-08-17T08:00:12.908Z,17.63
2023-08-17T08:02:39.396Z,19.67
2023-08-17T08:05:07.021Z,18.10
2023-08-17T08:07:33.480Z,16.30
2023-08-17T08:09:59.937Z,20.23
2023-08-17T08:12:26.578Z,22.75
2023-08-17T08:14:53.013Z,20.00
2023-08-17T08:17:20.554Z,21.77
2023-08-17T08:19:47.392Z,18.35
2023-08-17T08:22:13.906Z,19.42
2023-08-17T08:27:08.788Z,18.70
2023-08-17T08:29:35.244Z,19.58
2023-08-17T08:32:03.782Z,19.75
2023-08-17T08:34:30.229Z,19.00
2023-08-17T08:36:56.674Z,20.50
2023-08-17T08:39:23.127Z,18.48
2023-08-17T08:41:49.756Z,22.25
2023-08-17T08:44:16.332Z,20.10
2023-08-17T08:46:45.789Z,19.58
2023-08-17T08:49:13.310Z,19.13
2023-08-17T08:51:44.917Z,24.00
2023-08-17T08:54:21.187Z,22.45
2023-08-17T08:56:52.655Z,21.38
2023-08-17T08:59:21.468Z,24.25
2023-08-17T09:01:49.944Z,22.40
2023-08-17T09:04:18.087Z,20.55
2023-08-17T09:06:44.965Z,22.27
2023-08-17T09:09:12.617Z,24.70
2023-08-17T09:11:44.902Z,19.83
2023-08-17T09:14:11.927Z,23.17
2023-08-17T09:16:38.505Z,23.42
2023-08-17T09:19:05.374Z,22.08
2023-08-17T09:21:33.954Z,24.58
2023-08-17T09:24:00.860Z,23.02
2023-08-17T09:26:32.771Z,23.80
2023-08-17T09:29:00.603Z,23.00
2023-08-17T09:31:27.449Z,23.95
2023-08-17T09:33:54.268Z,26.33
2023-08-17T09:36:24.788Z,25.08
2023-08-17T09:38:54.434Z,24.60
2023-08-17T09:41:21.135Z,25.83
2023-08-17T09:43:48.599Z,28.70
2023-08-17T09:46:16.038Z,27.08
2023-08-17T09:48:45.079Z,25.63
2023-08-17T09:51:11.845Z,25.17
2023-08-17T09:53:38.576Z,23.67
2023-08-17T09:56:08.562Z,23.33
2023-08-17T09:58:35.039Z,23.83
2023-08-17T10:01:05.381Z,23.50
2023-08-17T10:03:35.480Z,23.23
2023-08-17T10:06:11.242Z,28.55
2023-08-17T10:08:44.377Z,26.00
2023-08-17T10:13:45.583Z,22.65
2023-08-17T10:16:39.696Z,27.73
2023-08-17T10:19:12.496Z,26.92
2023-08-17T10:22:09.676Z,31.63
2023-08-17T10:24:38.657Z,29.10
2023-08-17T10:27:07.068Z,30.60
2023-08-17T10:29:34.247Z,27.98
2023-08-17T10:32:02.246Z,28.98
2023-08-17T10:34:29.960Z,30.83
2023-08-17T10:36:59.070Z,28.23
2023-08-17T10:39:30.696Z,24.58
2023-08-17T10:41:59.121Z,27.73
2023-08-17T10:44:49.309Z,21.73
2023-08-17T10:47:36.803Z,23.83
2023-08-17T10:50:20.718Z,24.35
2023-08-17T10:52:49.317Z,26.88
2023-08-17T10:55:16.197Z,24.02
2023-08-17T10:57:44.433Z,26.80
2023-08-17T11:00:27.443Z,21.80
2023-08-17T11:03:02.257Z,19.98
2023-08-17T11:05:59.779Z,20.27
2023-08-17T11:08:34.501Z,21.33
2023-08-17T11:11:15.014Z,22.17
2023-08-17T11:13:44.353Z,20.13
2023-08-17T11:16:13.734Z,22.77
2023-08-17T11:18:42.834Z,25.38
2023-08-17T11:21:11.127Z,27.70
2023-08-17T11:23:38.393Z,25.50
2023-08-17T11:26:05.761Z,24.50
2023-08-17T11:28:43.272Z,25.20
2023-08-17T11:31:12.682Z,24.65
2023-08-17T11:33:40.356Z,25.10
2023-08-17T11:36:08.984Z,19.92
2023-08-17T11:38:40.437Z,21.48
2023-08-17T11:41:09.335Z,19.60
2023-08-17T11:43:36.781Z,22.70
2023-08-17T11:46:04.066Z,22.77
2023-08-17T11:48:36.699Z,20.73
2023-08-17T11:53:39.809Z,21.50
2023-08-17T11:56:09.491Z,21.48
2023-08-17T11:58:45.408Z,22.15
2023-08-17T12:01:13.670Z,21.52
2023-08-17T12:03:43.993Z,20.65
2023-08-17T12:06:13.668Z,18.85
2023-08-17T12:08:45.483Z,21.35
2023-08-17T12:11:13.231Z,21.55
2023-08-17T12:13:39.715Z,22.27
2023-08-17T12:16:06.362Z,20.20
2023-08-17T12:18:34.355Z,21.23
2023-08-17T12:21:01.464Z,21.23
2023-08-17T12:23:27.980Z,18.95
2023-08-17T12:25:55.970Z,22.08
2023-08-17T12:28:24.145Z,18.60
2023-08-17T12:30:59.276Z,19.33
2023-08-17T12:33:25.812Z,25.00
2023-08-17T12:35:52.306Z,26.15
2023-08-17T12:38:18.962Z,27.20
2023-08-17T12:40:45.511Z,27.63
2023-08-17T12:43:15.477Z,20.85
2023-08-17T12:45:42.667Z,19.30
2023-08-17T12:48:09.244Z,20.70
2023-08-17T12:50:35.785Z,21.60
2023-08-17T12:53:02.264Z,20.17
2023-08-17T12:55:28.807Z,20.50
2023-08-17T12:57:55.333Z,24.65
2023-08-17T13:00:21.888Z,23.52
2023-08-17T13:02:52.717Z,20.77
2023-08-17T13:05:19.211Z,23.83
2023-08-17T13:07:45.703Z,18.77
2023-08-17T13:10:12.169Z,22.27
2023-08-17T13:12:38.651Z,25.40
2023-08-17T13:15:05.819Z,42.47
2023-08-17T13:17:32.332Z,36.90
2023-08-17T13:19:58.775Z,33.13
2023-08-17T13:22:25.571Z,25.00
2023-08-17T13:24:52.253Z,24.95
2023-08-17T13:27:18.699Z,22.70
2023-08-17T13:29:45.152Z,22.85
2023-08-17T13:32:11.586Z,20.33
2023-08-17T13:34:38.143Z,21.77
2023-08-17T13:37:04.790Z,19.48
2023-08-17T13:39:31.328Z,20.40
2023-08-17T13:41:57.746Z,19.83
2023-08-17T13:44:24.303Z,20.85
2023-08-17T13:46:50.717Z,20.02
2023-08-17T13:49:17.213Z,19.55
2023-08-17T13:51:43.975Z,23.08
2023-08-17T13:54:10.424Z,21.05
2023-08-17T13:56:36.897Z,23.60
2023-08-17T13:59:03.585Z,22.10
2023-08-17T14:01:30.409Z,23.40
2023-08-17T14:03:56.951Z,21.33
2023-08-17T14:06:23.641Z,19.80
2023-08-17T14:08:50.195Z,21.33
2023-08-17T14:11:16.647Z,22.35
2023-08-17T14:13:43.572Z,20.42
2023-08-17T14:16:10.093Z,22.88
2023-08-17T14:18:36.685Z,22.85
2023-08-17T14:21:03.326Z,23.30
2023-08-17T14:23:29.791Z,28.38
2023-08-17T14:25:56.286Z,25.00
2023-08-17T14:28:23.042Z,24.60
2023-08-17T14:33:18.926Z,22.48
2023-08-17T14:35:45.418Z,24.00
2023-08-17T14:38:14.217Z,22.55
2023-08-17T14:40:48.388Z,22.45
2023-08-17T14:43:15.720Z,21.45
2023-08-17T14:45:45.011Z,23.55
2023-08-17T14:48:11.689Z,25.83
2023-08-17T14:50:38.959Z,21.27
2023-08-17T14:53:08.650Z,20.42
2023-08-17T14:55:35.669Z,19.90
2023-08-17T14:58:04.077Z,19.95
2023-08-17T15:00:33.744Z,27.65
2023-08-17T15:03:02.133Z,19.55
2023-08-17T15:05:29.464Z,19.80
2023-08-17T15:07:56.460Z,24.45
2023-08-17T15:10:23.258Z,22.35
2023-08-17T15:12:50.056Z,19.85
2023-08-17T15:15:20.547Z,19.75
2023-08-17T15:17:47.606Z,18.50
2023-08-17T15:20:14.218Z,19.60
2023-08-17T15:22:40.656Z,17.40
2023-08-17T15:25:07.429Z,20.92
2023-08-17T15:27:34.031Z,19.42
2023-08-17T15:30:01.037Z,20.50
2023-08-17T15:32:27.882Z,19.50
2023-08-17T15:34:56.846Z,18.50
2023-08-17T15:37:24.146Z,19.38
2023-08-17T15:39:51.528Z,19.35
2023-08-17T15:42:18.114Z,21.58
2023-08-17T15:44:44.718Z,16.92
2023-08-17T15:47:11.186Z,17.27
2023-08-17T15:49:37.642Z,18.30
2023-08-17T15:52:06.220Z,19.55
2023-08-17T15:54:36.796Z,18.70
2023-08-17T15:57:05.421Z,19.83
2023-08-17T15:59:32.142Z,17.42
2023-08-17T16:01:58.639Z,21.27
2023-08-17T16:04:25.227Z,15.25
2023-08-17T16:06:51.666Z,15.85
2023-08-17T16:09:18.088Z,13.93
2023-08-17T16:11:44.552Z,14.40
2023-08-17T16:14:11.371Z,13.93
2023-08-17T16:16:37.839Z,14.02
2023-08-17T16:19:05.170Z,14.43
2023-08-17T16:21:32.176Z,14.50
2023-08-17T16:23:58.658Z,14.77
2023-08-17T16:26:25.579Z,12.25
2023-08-17T16:28:52.312Z,15.13
2023-08-17T16:31:18.830Z,12.60
2023-08-17T16:33:46.811Z,12.85
2023-08-17T16:36:14.604Z,12.98
2023-08-17T16:38:41.086Z,15.98
2023-08-17T16:41:08.751Z,12.27
2023-08-17T16:43:35.155Z,13.75
2023-08-17T16:46:01.809Z,10.93
2023-08-17T16:48:28.420Z,12.18
2023-08-17T16:50:54.898Z,11.85
2023-08-17T16:53:21.582Z,11.57
2023-08-17T16:58:20.269Z,10.90
2023-08-17T17:00:46.742Z,13.38
2023-08-17T17:03:13.305Z,14.88
2023-08-17T17:05:40.018Z,14.18
2023-08-17T17:08:07.077Z,13.75
2023-08-17T17:10:33.610Z,14.32
2023-08-17T17:13:00.150Z,14.70
2023-08-17T17:15:26.894Z,14.48
2023-08-17T17:17:53.405Z,14.77
2023-08-17T17:20:19.934Z,14.02
2023-08-17T17:22:46.418Z,10.88
2023-08-17T17:25:12.932Z,14.32
2023-08-17T17:27:40.834Z,9.98
2023-08-17T17:30:08.093Z,9.90
2023-08-17T17:32:34.711Z,10.20
2023-08-17T17:35:01.452Z,11.75
2023-08-17T17:37:28.136Z,12.25
2023-08-17T17:39:54.720Z,10.35
2023-08-17T17:42:21.249Z,12.07
2023-08-17T17:44:47.863Z,9.50
2023-08-17T17:47:14.486Z,10.60
2023-08-17T17:49:41.247Z,8.00
2023-08-17T17:52:07.680Z,10.77
2023-08-17T17:54:38.356Z,8.57
2023-08-17T17:57:05.482Z,11.60
2023-08-17T17:59:32.082Z,9.77
2023-08-17T18:01:58.796Z,10.52
2023-08-17T18:04:26.008Z,9.23
2023-08-17T18:06:52.831Z,12.27
2023-08-17T18:09:20.442Z,8.82
2023-08-17T18:11:47.001Z,10.32
2023-08-17T18:14:14.930Z,11.38
2023-08-17T18:16:41.454Z,10.93
2023-08-17T18:19:08.752Z,10.35
2023-08-17T18:21:35.179Z,10.70
2023-08-17T18:24:01.689Z,9.70
2023-08-17T18:26:28.257Z,9.10
2023-08-17T18:28:56.409Z,8.18
2023-08-17T18:31:23.052Z,10.48
2023-08-17T18:33:50.095Z,9.05
2023-08-17T18:36:16.757Z,8.75
2023-08-17T18:38:43.211Z,9.18
2023-08-17T18:41:10.562Z,8.43
2023-08-17T18:43:37.730Z,9.80
2023-08-17T18:46:04.815Z,7.28
2023-08-17T18:48:31.578Z,9.00
2023-08-17T18:50:58.341Z,8.13
2023-08-17T18:53:25.478Z,9.13
2023-08-17T18:55:52.003Z,8.20
2023-08-17T18:58:19.794Z,8.05
2023-08-17T19:00:46.339Z,10.60
2023-08-17T19:03:13.365Z,10.27
2023-08-17T19:05:40.595Z,9.57
2023-08-17T19:08:07.153Z,9.25
2023-08-17T19:10:33.656Z,9.80
2023-08-17T19:13:00.211Z,14.27
2023-08-17T19:15:26.762Z,11.13
2023-08-17T19:17:53.313Z,12.38
2023-08-17T19:20:19.753Z,11.25
2023-08-17T19:22:46.220Z,10.18
2023-08-17T19:25:12.843Z,11.95
2023-08-17T19:27:41.385Z,10.40
2023-08-17T19:30:11.449Z,11.07
2023-08-17T19:32:41.324Z,11.20
2023-08-17T19:35:08.255Z,12.57
2023-08-17T19:37:35.321Z,9.48
2023-08-17T19:40:04.010Z,9.65
2023-08-17T19:42:30.836Z,9.52
2023-08-17T19:44:57.312Z,9.75
2023-08-17T19:47:23.988Z,10.60
2023-08-17T19:49:50.535Z,10.85
2023-08-17T19:52:17.574Z,9.57
2023-08-17T19:54:48.116Z,9.73
2023-08-17T19:57:14.788Z,8.52
2023-08-17T19:59:41.237Z,9.50
2023-08-17T20:02:07.750Z,10.82
2023-08-17T20:04:34.500Z,11.55
2023-08-17T20:07:00.994Z,9.95
2023-08-17T20:09:27.413Z,9.70
2023-08-17T20:11:53.852Z,10.60
2023-08-17T20:14:22.759Z,10.52
2023-08-17T20:16:50.026Z,11.18
2023-08-17T20:19:16.610Z,9.98
2023-08-17T20:21:43.037Z,11.13
2023-08-17T20:24:10.552Z,13.10
2023-08-17T20:26:38.651Z,11.15
2023-08-17T20:29:05.100Z,11.80
2023-08-17T20:31:31.778Z,13.73
2023-08-17T20:33:58.254Z,12.23
2023-08-17T20:36:24.679Z,12.75
2023-08-17T20:38:52.938Z,14.00
2023-08-17T20:41:20.801Z,13.63
2023-08-17T20:43:47.629Z,12.40
2023-08-17T20:46:14.504Z,12.15
2023-08-17T20:48:41.431Z,11.32
2023-08-17T20:51:08.618Z,11.73
2023-08-17T20:53:36.507Z,13.10
2023-08-17T20:56:03.802Z,13.85
2023-08-17T20:58:30.283Z,10.25
2023-08-17T21:00:59.250Z,10.85
2023-08-17T21:03:25.832Z,12.95
2023-08-17T21:05:52.279Z,9.48
2023-08-17T21:08:19.434Z,9.60
2023-08-17T21:10:48.712Z,11.95
2023-08-17T21:13:15.274Z,11.88
2023-08-17T21:15:41.982Z,14.02
2023-08-17T21:18:08.648Z,12.10
2023-08-17T21:20:35.289Z,11.75
2023-08-17T21:23:01.745Z,11.98
2023-08-17T21:25:28.192Z,11.60
2023-08-17T21:27:54.625Z,13.88
2023-08-17T21:30:22.086Z,14.02
2023-08-17T21:32:48.607Z,14.93
2023-08-17T21:35:15.181Z,14.05
2023-08-17T21:37:43.806Z,14.45
2023-08-17T21:40:11.085Z,12.13
2023-08-17T21:42:37.530Z,13.93
2023-08-17T21:45:04.517Z,15.57
2023-08-17T21:47:31.395Z,16.75
2023-08-17T21:49:58.218Z,15.40
2023-08-17T21:52:24.761Z,17.63
2023-08-17T21:54:51.512Z,14.13
2023-08-17T21:57:18.772Z,15.95
2023-08-17T21:59:45.444Z,15.77
2023-08-17T22:02:11.952Z,14.95
2023-08-17T22:04:38.640Z,14.98
2023-08-17T22:07:05.257Z,13.32
2023-08-17T22:09:34.249Z,14.73
2023-08-17T22:12:00.834Z,11.77
2023-08-17T22:14:29.493Z,12.10
2023-08-17T22:16:57.438Z,11.93
2023-08-17T22:19:24.358Z,13.32
2023-08-17T22:21:50.968Z,13.80
2023-08-17T22:24:17.441Z,12.63
2023-08-17T22:26:44.134Z,12.77
2023-08-17T22:29:10.911Z,13.20
2023-08-17T22:31:37.401Z,11.35
2023-08-17T22:34:04.046Z,12.32
2023-08-17T22:36:30.512Z,16.38
2023-08-17T22:38:57.254Z,12.45
2023-08-17T22:41:24.262Z,13.90
2023-08-17T22:43:50.751Z,13.70
2023-08-17T22:46:17.329Z,15.48
2023-08-17T22:48:44.330Z,15.98
2023-08-17T22:51:11.360Z,15.88
2023-08-17T22:53:38.063Z,15.38
2023-08-17T22:56:04.777Z,16.33
2023-08-17T22:58:31.983Z,17.50
2023-08-17T23:00:59.054Z,18.50
2023-08-17T23:03:26.413Z,17.88
2023-08-17T23:05:53.480Z,16.23
2023-08-17T23:08:19.920Z,16.48
2023-08-17T23:10:47.253Z,17.08
2023-08-17T23:13:13.793Z,17.00
2023-08-17T23:15:40.274Z,15.90
2023-08-17T23:18:07.016Z,15.50
2023-08-17T23:20:33.552Z,13.15
2023-08-17T23:23:00.001Z,14.15
2023-08-17T23:25:26.900Z,14.35
2023-08-17T23:27:53.493Z,14.55
2023-08-17T23:30:22.004Z,15.23
2023-08-17T23:32:48.528Z,16.00
2023-08-17T23:35:15.019Z,16.52
2023-08-17T23:37:41.530Z,14.63
2023-08-17T23:40:08.767Z,16.88
2023-08-17T23:42:35.206Z,15.70
2023-08-17T23:45:02.165Z,18.88
2023-08-17T23:47:28.879Z,18.55
2023-08-17T23:49:55.547Z,22.85
2023-08-17T23:52:21.965Z,19.13
2023-08-17T23:54:48.385Z,18.80
2023-08-17T23:57:14.833Z,17.17
2023-08-17T23:59:41.329Z,19.77
